sensor_id;sensor_type;location;lat;lon;timestamp;P1;durP1;ratioP1;P2;durP2;ratioP2
74415;SDS011;62850;42.428;25.618;2023-07-08T00:00:37;7.60;;;4.32;;
74415;SDS011;62850;42.428;25.618;2023-07-08T00:03:02;7.75;;;4.80;;
74415;SDS011;62850;42.428;25.618;2023-07-08T00:05:28;8.80;;;4.35;;
74415;SDS011;62850;42.428;25.618;2023-07-08T00:07:53;7.32;;;4.65;;
74415;SDS011;62850;42.428;25.618;2023-07-08T00:10:20;8.20;;;4.45;;
74415;SDS011;62850;42.428;25.618;2023-07-08T00:12:48;7.38;;;4.35;;
74415;SDS011;62850;42.428;25.618;2023-07-08T00:15:15;7.70;;;4.50;;
74415;SDS011;62850;42.428;25.618;2023-07-08T00:17:42;8.15;;;4.63;;
74415;SDS011;62850;42.428;25.618;2023-07-08T00:22:48;7.88;;;4.78;;
74415;SDS011;62850;42.428;25.618;2023-07-08T00:25:17;7.15;;;4.57;;
74415;SDS011;62850;42.428;25.618;2023-07-08T00:27:47;7.28;;;4.00;;
74415;SDS011;62850;42.428;25.618;2023-07-08T00:30:20;7.28;;;4.40;;
74415;SDS011;62850;42.428;25.618;2023-07-08T00:32:46;6.63;;;3.92;;
74415;SDS011;62850;42.428;25.618;2023-07-08T00:35:12;6.60;;;3.55;;
74415;SDS011;62850;42.428;25.618;2023-07-08T00:37:37;8.77;;;4.30;;
74415;SDS011;62850;42.428;25.618;2023-07-08T00:40:16;8.48;;;4.60;;
74415;SDS011;62850;42.428;25.618;2023-07-08T00:42:43;8.82;;;5.10;;
74415;SDS011;62850;42.428;25.618;2023-07-08T00:45:18;7.00;;;4.35;;
74415;SDS011;62850;42.428;25.618;2023-07-08T00:48:25;8.30;;;4.95;;
74415;SDS011;62850;42.428;25.618;2023-07-08T00:53:32;7.07;;;4.00;;
74415;SDS011;62850;42.428;25.618;2023-07-08T00:56:09;7.90;;;4.07;;
74415;SDS011;62850;42.428;25.618;2023-07-08T00:58:41;6.90;;;4.35;;
74415;SDS011;62850;42.428;25.618;2023-07-08T01:01:10;8.05;;;4.38;;
74415;SDS011;62850;42.428;25.618;2023-07-08T01:03:45;7.40;;;4.88;;
74415;SDS011;62850;42.428;25.618;2023-07-08T01:06:18;6.95;;;4.10;;
74415;SDS011;62850;42.428;25.618;2023-07-08T01:08:47;9.35;;;4.60;;
74415;SDS011;62850;42.428;25.618;2023-07-08T01:11:18;6.70;;;4.30;;
74415;SDS011;62850;42.428;25.618;2023-07-08T01:13:46;8.05;;;4.60;;
74415;SDS011;62850;42.428;25.618;2023-07-08T01:16:14;8.10;;;4.40;;
74415;SDS011;62850;42.428;25.618;2023-07-08T01:18:40;7.30;;;4.32;;
74415;SDS011;62850;42.428;25.618;2023-07-08T01:21:27;8.75;;;4.43;;
74415;SDS011;62850;42.428;25.618;2023-07-08T01:23:53;6.90;;;4.45;;
74415;SDS011;62850;42.428;25.618;2023-07-08T01:26:20;8.30;;;4.65;;
74415;SDS011;62850;42.428;25.618;2023-07-08T01:28:50;8.13;;;4.43;;
74415;SDS011;62850;42.428;25.618;2023-07-08T01:31:16;7.60;;;4.13;;
74415;SDS011;62850;42.428;25.618;2023-07-08T01:33:42;7.63;;;4.82;;
74415;SDS011;62850;42.428;25.618;2023-07-08T01:36:11;8.45;;;4.10;;
74415;SDS011;62850;42.428;25.618;2023-07-08T01:38:36;6.80;;;4.40;;
74415;SDS011;62850;42.428;25.618;2023-07-08T01:41:03;8.43;;;4.00;;
74415;SDS011;62850;42.428;25.618;2023-07-08T01:43:29;8.02;;;4.18;;
74415;SDS011;62850;42.428;25.618;2023-07-08T01:45:54;7.10;;;4.18;;
74415;SDS011;62850;42.428;25.618;2023-07-08T01:48:25;9.77;;;4.13;;
74415;SDS011;62850;42.428;25.618;2023-07-08T01:50:59;8.05;;;4.32;;
74415;SDS011;62850;42.428;25.618;2023-07-08T01:53:38;6.47;;;3.50;;
74415;SDS011;62850;42.428;25.618;2023-07-08T01:56:08;8.32;;;3.92;;
74415;SDS011;62850;42.428;25.618;2023-07-08T01:58:35;8.55;;;4.18;;
74415;SDS011;62850;42.428;25.618;2023-07-08T02:01:00;7.63;;;3.92;;
74415;SDS011;62850;42.428;25.618;2023-07-08T02:03:27;7.43;;;4.18;;
74415;SDS011;62850;42.428;25.618;2023-07-08T02:05:53;6.93;;;4.18;;
74415;SDS011;62850;42.428;25.618;2023-07-08T02:08:18;8.73;;;4.53;;
74415;SDS011;62850;42.428;25.618;2023-07-08T02:10:48;8.27;;;5.10;;
74415;SDS011;62850;42.428;25.618;2023-07-08T02:13:15;7.63;;;5.65;;
74415;SDS011;62850;42.428;25.618;2023-07-08T02:15:41;9.70;;;5.93;;
74415;SDS011;62850;42.428;25.618;2023-07-08T02:18:07;10.10;;;5.53;;
74415;SDS011;62850;42.428;25.618;2023-07-08T02:20:32;8.65;;;5.38;;
74415;SDS011;62850;42.428;25.618;2023-07-08T02:22:58;12.80;;;6.10;;
74415;SDS011;62850;42.428;25.618;2023-07-08T02:25:23;9.60;;;5.45;;
74415;SDS011;62850;42.428;25.618;2023-07-08T02:27:49;11.48;;;5.95;;
74415;SDS011;62850;42.428;25.618;2023-07-08T02:30:14;10.63;;;6.55;;
74415;SDS011;62850;42.428;25.618;2023-07-08T02:32:40;11.38;;;6.45;;
74415;SDS011;62850;42.428;25.618;2023-07-08T02:35:06;9.75;;;6.22;;
74415;SDS011;62850;42.428;25.618;2023-07-08T02:37:33;10.68;;;6.10;;
74415;SDS011;62850;42.428;25.618;2023-07-08T02:39:59;10.07;;;5.93;;
74415;SDS011;62850;42.428;25.618;2023-07-08T02:42:25;9.75;;;6.00;;
74415;SDS011;62850;42.428;25.618;2023-07-08T02:44:51;7.53;;;5.38;;
74415;SDS011;62850;42.428;25.618;2023-07-08T02:47:16;6.65;;;4.68;;
74415;SDS011;62850;42.428;25.618;2023-07-08T02:49:42;7.22;;;4.68;;
74415;SDS011;62850;42.428;25.618;2023-07-08T02:52:07;8.40;;;4.72;;
74415;SDS011;62850;42.428;25.618;2023-07-08T02:54:33;8.15;;;4.28;;
74415;SDS011;62850;42.428;25.618;2023-07-08T02:56:59;8.15;;;5.63;;
74415;SDS011;62850;42.428;25.618;2023-07-08T02:59:25;10.07;;;5.55;;
74415;SDS011;62850;42.428;25.618;2023-07-08T03:01:51;7.20;;;4.95;;
74415;SDS011;62850;42.428;25.618;2023-07-08T03:04:16;8.18;;;5.15;;
74415;SDS011;62850;42.428;25.618;2023-07-08T03:06:43;7.07;;;4.38;;
74415;SDS011;62850;42.428;25.618;2023-07-08T03:09:10;5.93;;;3.72;;
74415;SDS011;62850;42.428;25.618;2023-07-08T03:11:37;7.32;;;4.25;;
74415;SDS011;62850;42.428;25.618;2023-07-08T03:14:03;3.60;;;2.08;;
74415;SDS011;62850;42.428;25.618;2023-07-08T03:16:28;5.10;;;2.60;;
74415;SDS011;62850;42.428;25.618;2023-07-08T03:18:54;6.05;;;2.83;;
74415;SDS011;62850;42.428;25.618;2023-07-08T03:21:19;5.10;;;2.70;;
74415;SDS011;62850;42.428;25.618;2023-07-08T03:23:45;6.22;;;3.03;;
74415;SDS011;62850;42.428;25.618;2023-07-08T03:26:14;6.38;;;3.17;;
74415;SDS011;62850;42.428;25.618;2023-07-08T03:28:42;5.38;;;3.03;;
74415;SDS011;62850;42.428;25.618;2023-07-08T03:31:09;7.90;;;3.08;;
74415;SDS011;62850;42.428;25.618;2023-07-08T03:33:35;6.90;;;3.50;;
74415;SDS011;62850;42.428;25.618;2023-07-08T03:36:01;5.93;;;3.42;;
74415;SDS011;62850;42.428;25.618;2023-07-08T03:38:27;5.53;;;3.13;;
74415;SDS011;62850;42.428;25.618;2023-07-08T03:40:52;6.03;;;3.35;;
74415;SDS011;62850;42.428;25.618;2023-07-08T03:43:18;5.45;;;2.80;;
74415;SDS011;62850;42.428;25.618;2023-07-08T03:45:44;5.97;;;3.20;;
74415;SDS011;62850;42.428;25.618;2023-07-08T03:48:10;4.07;;;2.53;;
74415;SDS011;62850;42.428;25.618;2023-07-08T03:50:36;8.73;;;3.85;;
74415;SDS011;62850;42.428;25.618;2023-07-08T03:53:03;6.03;;;3.35;;
74415;SDS011;62850;42.428;25.618;2023-07-08T03:55:29;5.15;;;3.22;;
74415;SDS011;62850;42.428;25.618;2023-07-08T03:57:54;5.15;;;3.05;;
74415;SDS011;62850;42.428;25.618;2023-07-08T04:00:20;7.63;;;2.90;;
74415;SDS011;62850;42.428;25.618;2023-07-08T04:02:46;9.15;;;2.97;;
74415;SDS011;62850;42.428;25.618;2023-07-08T04:05:15;5.05;;;2.90;;
74415;SDS011;62850;42.428;25.618;2023-07-08T04:07:42;5.10;;;2.60;;
74415;SDS011;62850;42.428;25.618;2023-07-08T04:10:08;5.07;;;2.40;;
74415;SDS011;62850;42.428;25.618;2023-07-08T04:12:34;5.60;;;2.58;;
74415;SDS011;62850;42.428;25.618;2023-07-08T04:15:00;7.82;;;2.88;;
74415;SDS011;62850;42.428;25.618;2023-07-08T04:17:26;4.38;;;2.25;;
74415;SDS011;62850;42.428;25.618;2023-07-08T04:19:51;4.97;;;2.38;;
74415;SDS011;62850;42.428;25.618;2023-07-08T04:22:17;4.53;;;2.30;;
74415;SDS011;62850;42.428;25.618;2023-07-08T04:24:42;5.15;;;2.45;;
74415;SDS011;62850;42.428;25.618;2023-07-08T04:27:15;4.53;;;2.20;;
74415;SDS011;62850;42.428;25.618;2023-07-08T04:29:42;4.05;;;2.30;;
74415;SDS011;62850;42.428;25.618;2023-07-08T04:32:08;4.32;;;2.20;;
74415;SDS011;62850;42.428;25.618;2023-07-08T04:34:34;6.07;;;2.30;;
74415;SDS011;62850;42.428;25.618;2023-07-08T04:36:59;4.55;;;2.40;;
74415;SDS011;62850;42.428;25.618;2023-07-08T04:39:26;5.78;;;2.42;;
74415;SDS011;62850;42.428;25.618;2023-07-08T04:41:52;4.13;;;2.20;;
74415;SDS011;62850;42.428;25.618;2023-07-08T04:44:18;4.30;;;2.20;;
74415;SDS011;62850;42.428;25.618;2023-07-08T04:46:56;6.53;;;2.72;;
74415;SDS011;62850;42.428;25.618;2023-07-08T04:49:23;4.65;;;2.50;;
74415;SDS011;62850;42.428;25.618;2023-07-08T04:51:50;5.53;;;2.33;;
74415;SDS011;62850;42.428;25.618;2023-07-08T04:54:16;5.90;;;2.20;;
74415;SDS011;62850;42.428;25.618;2023-07-08T04:56:43;4.22;;;2.30;;
74415;SDS011;62850;42.428;25.618;2023-07-08T04:59:14;6.60;;;3.00;;
74415;SDS011;62850;42.428;25.618;2023-07-08T05:01:46;5.05;;;2.53;;
74415;SDS011;62850;42.428;25.618;2023-07-08T05:04:14;6.53;;;2.95;;
74415;SDS011;62850;42.428;25.618;2023-07-08T05:06:42;5.47;;;2.95;;
74415;SDS011;62850;42.428;25.618;2023-07-08T05:09:07;13.23;;;5.13;;
74415;SDS011;62850;42.428;25.618;2023-07-08T05:11:33;32.15;;;14.27;;
74415;SDS011;62850;42.428;25.618;2023-07-08T05:14:00;41.45;;;23.05;;
74415;SDS011;62850;42.428;25.618;2023-07-08T05:16:27;10.32;;;6.13;;
74415;SDS011;62850;42.428;25.618;2023-07-08T05:18:53;6.88;;;3.80;;
74415;SDS011;62850;42.428;25.618;2023-07-08T05:21:19;6.28;;;3.50;;
74415;SDS011;62850;42.428;25.618;2023-07-08T05:23:45;7.88;;;4.07;;
74415;SDS011;62850;42.428;25.618;2023-07-08T05:26:17;5.57;;;3.20;;
74415;SDS011;62850;42.428;25.618;2023-07-08T05:28:42;6.70;;;3.20;;
74415;SDS011;62850;42.428;25.618;2023-07-08T05:31:08;5.22;;;3.28;;
74415;SDS011;62850;42.428;25.618;2023-07-08T05:33:34;5.53;;;3.30;;
74415;SDS011;62850;42.428;25.618;2023-07-08T05:36:00;7.53;;;3.47;;
74415;SDS011;62850;42.428;25.618;2023-07-08T05:38:26;6.90;;;3.80;;
74415;SDS011;62850;42.428;25.618;2023-07-08T05:40:56;5.38;;;3.17;;
74415;SDS011;62850;42.428;25.618;2023-07-08T05:43:23;6.43;;;3.30;;
74415;SDS011;62850;42.428;25.618;2023-07-08T05:45:49;8.30;;;3.10;;
74415;SDS011;62850;42.428;25.618;2023-07-08T05:48:14;6.70;;;3.38;;
74415;SDS011;62850;42.428;25.618;2023-07-08T05:50:40;5.72;;;3.50;;
74415;SDS011;62850;42.428;25.618;2023-07-08T05:53:08;5.93;;;3.30;;
74415;SDS011;62850;42.428;25.618;2023-07-08T05:55:34;6.97;;;3.47;;
74415;SDS011;62850;42.428;25.618;2023-07-08T05:58:00;7.10;;;3.17;;
74415;SDS011;62850;42.428;25.618;2023-07-08T06:00:25;5.90;;;3.38;;
74415;SDS011;62850;42.428;25.618;2023-07-08T06:02:51;5.95;;;3.30;;
74415;SDS011;62850;42.428;25.618;2023-07-08T06:05:16;8.07;;;3.30;;
74415;SDS011;62850;42.428;25.618;2023-07-08T06:07:42;5.82;;;3.42;;
74415;SDS011;62850;42.428;25.618;2023-07-08T06:10:07;6.78;;;3.70;;
74415;SDS011;62850;42.428;25.618;2023-07-08T06:12:33;7.35;;;3.47;;
74415;SDS011;62850;42.428;25.618;2023-07-08T06:14:58;5.45;;;3.30;;
74415;SDS011;62850;42.428;25.618;2023-07-08T06:17:24;7.32;;;3.78;;
74415;SDS011;62850;42.428;25.618;2023-07-08T06:19:50;8.18;;;4.43;;
74415;SDS011;62850;42.428;25.618;2023-07-08T06:22:15;8.43;;;3.80;;
74415;SDS011;62850;42.428;25.618;2023-07-08T06:24:41;6.47;;;4.10;;
74415;SDS011;62850;42.428;25.618;2023-07-08T06:27:06;7.57;;;4.53;;
74415;SDS011;62850;42.428;25.618;2023-07-08T06:29:33;7.20;;;3.80;;
74415;SDS011;62850;42.428;25.618;2023-07-08T06:31:59;8.30;;;4.55;;
74415;SDS011;62850;42.428;25.618;2023-07-08T06:34:25;8.40;;;4.15;;
74415;SDS011;62850;42.428;25.618;2023-07-08T06:36:51;6.90;;;4.35;;
74415;SDS011;62850;42.428;25.618;2023-07-08T06:39:17;7.50;;;4.75;;
74415;SDS011;62850;42.428;25.618;2023-07-08T06:41:43;6.10;;;4.10;;
74415;SDS011;62850;42.428;25.618;2023-07-08T06:44:08;6.38;;;4.40;;
74415;SDS011;62850;42.428;25.618;2023-07-08T06:46:34;6.80;;;4.15;;
74415;SDS011;62850;42.428;25.618;2023-07-08T06:48:59;8.07;;;4.55;;
74415;SDS011;62850;42.428;25.618;2023-07-08T06:51:25;9.43;;;5.03;;
74415;SDS011;62850;42.428;25.618;2023-07-08T06:53:51;12.75;;;5.70;;
74415;SDS011;62850;42.428;25.618;2023-07-08T06:56:16;8.75;;;4.72;;
74415;SDS011;62850;42.428;25.618;2023-07-08T06:58:42;7.32;;;4.30;;
74415;SDS011;62850;42.428;25.618;2023-07-08T07:01:08;8.30;;;5.03;;
74415;SDS011;62850;42.428;25.618;2023-07-08T07:03:33;8.07;;;4.63;;
74415;SDS011;62850;42.428;25.618;2023-07-08T07:05:59;7.85;;;4.60;;
74415;SDS011;62850;42.428;25.618;2023-07-08T07:08:24;18.58;;;8.90;;
74415;SDS011;62850;42.428;25.618;2023-07-08T07:10:50;12.38;;;6.68;;
74415;SDS011;62850;42.428;25.618;2023-07-08T07:13:15;11.82;;;6.32;;
74415;SDS011;62850;42.428;25.618;2023-07-08T07:15:41;11.25;;;6.38;;
74415;SDS011;62850;42.428;25.618;2023-07-08T07:18:06;9.13;;;6.00;;
74415;SDS011;62850;42.428;25.618;2023-07-08T07:20:33;8.93;;;5.15;;
74415;SDS011;62850;42.428;25.618;2023-07-08T07:22:58;13.40;;;6.85;;
74415;SDS011;62850;42.428;25.618;2023-07-08T07:25:24;14.57;;;8.48;;
74415;SDS011;62850;42.428;25.618;2023-07-08T07:27:49;15.02;;;8.80;;
74415;SDS011;62850;42.428;25.618;2023-07-08T07:30:15;11.68;;;7.25;;
74415;SDS011;62850;42.428;25.618;2023-07-08T07:32:41;7.82;;;5.60;;
74415;SDS011;62850;42.428;25.618;2023-07-08T07:35:07;9.05;;;6.18;;
74415;SDS011;62850;42.428;25.618;2023-07-08T07:37:38;7.47;;;5.40;;
74415;SDS011;62850;42.428;25.618;2023-07-08T07:40:04;7.93;;;4.80;;
74415;SDS011;62850;42.428;25.618;2023-07-08T07:42:30;11.05;;;5.43;;
74415;SDS011;62850;42.428;25.618;2023-07-08T07:44:56;8.95;;;4.70;;
74415;SDS011;62850;42.428;25.618;2023-07-08T07:47:21;8.68;;;4.70;;
74415;SDS011;62850;42.428;25.618;2023-07-08T07:49:47;8.23;;;5.05;;
74415;SDS011;62850;42.428;25.618;2023-07-08T07:52:12;8.10;;;5.35;;
74415;SDS011;62850;42.428;25.618;2023-07-08T07:54:38;9.38;;;4.85;;
74415;SDS011;62850;42.428;25.618;2023-07-08T07:57:04;6.53;;;4.70;;
74415;SDS011;62850;42.428;25.618;2023-07-08T07:59:30;8.63;;;4.70;;
74415;SDS011;62850;42.428;25.618;2023-07-08T08:01:56;7.00;;;4.40;;
74415;SDS011;62850;42.428;25.618;2023-07-08T08:04:21;9.75;;;4.68;;
74415;SDS011;62850;42.428;25.618;2023-07-08T08:06:47;6.93;;;4.30;;
74415;SDS011;62850;42.428;25.618;2023-07-08T08:09:12;7.00;;;4.15;;
74415;SDS011;62850;42.428;25.618;2023-07-08T08:11:38;6.82;;;4.03;;
74415;SDS011;62850;42.428;25.618;2023-07-08T08:14:04;6.00;;;4.13;;
74415;SDS011;62850;42.428;25.618;2023-07-08T08:16:29;6.50;;;4.20;;
74415;SDS011;62850;42.428;25.618;2023-07-08T08:18:55;7.43;;;3.85;;
74415;SDS011;62850;42.428;25.618;2023-07-08T08:21:21;5.47;;;3.60;;
74415;SDS011;62850;42.428;25.618;2023-07-08T08:23:47;7.20;;;4.20;;
74415;SDS011;62850;42.428;25.618;2023-07-08T08:26:12;7.35;;;4.30;;
74415;SDS011;62850;42.428;25.618;2023-07-08T08:28:39;6.03;;;4.03;;
74415;SDS011;62850;42.428;25.618;2023-07-08T08:31:05;5.85;;;3.90;;
74415;SDS011;62850;42.428;25.618;2023-07-08T08:33:30;7.47;;;4.00;;
74415;SDS011;62850;42.428;25.618;2023-07-08T08:35:56;7.15;;;3.67;;
74415;SDS011;62850;42.428;25.618;2023-07-08T08:38:21;6.50;;;4.25;;
74415;SDS011;62850;42.428;25.618;2023-07-08T08:40:47;6.90;;;3.58;;
74415;SDS011;62850;42.428;25.618;2023-07-08T08:43:14;5.68;;;3.63;;
74415;SDS011;62850;42.428;25.618;2023-07-08T08:45:45;5.93;;;3.78;;
74415;SDS011;62850;42.428;25.618;2023-07-08T08:48:18;6.57;;;3.53;;
74415;SDS011;62850;42.428;25.618;2023-07-08T08:50:52;6.05;;;3.10;;
74415;SDS011;62850;42.428;25.618;2023-07-08T08:53:25;5.75;;;3.67;;
74415;SDS011;62850;42.428;25.618;2023-07-08T08:55:55;5.90;;;3.50;;
74415;SDS011;62850;42.428;25.618;2023-07-08T08:58:40;5.30;;;3.60;;
74415;SDS011;62850;42.428;25.618;2023-07-08T09:01:13;6.70;;;3.58;;
74415;SDS011;62850;42.428;25.618;2023-07-08T09:08:48;6.10;;;3.50;;
74415;SDS011;62850;42.428;25.618;2023-07-08T09:13:52;8.25;;;3.40;;
74415;SDS011;62850;42.428;25.618;2023-07-08T09:16:20;6.40;;;3.40;;
74415;SDS011;62850;42.428;25.618;2023-07-08T09:19:06;5.45;;;3.60;;
74415;SDS011;62850;42.428;25.618;2023-07-08T09:21:54;6.78;;;3.72;;
74415;SDS011;62850;42.428;25.618;2023-07-08T09:26:58;5.32;;;3.63;;
74415;SDS011;62850;42.428;25.618;2023-07-08T09:29:26;8.00;;;4.07;;
74415;SDS011;62850;42.428;25.618;2023-07-08T09:31:51;8.40;;;3.97;;
74415;SDS011;62850;42.428;25.618;2023-07-08T09:34:19;5.53;;;3.67;;
74415;SDS011;62850;42.428;25.618;2023-07-08T09:36:50;8.00;;;4.57;;
74415;SDS011;62850;42.428;25.618;2023-07-08T09:39:17;5.15;;;3.55;;
74415;SDS011;62850;42.428;25.618;2023-07-08T09:41:45;6.82;;;4.15;;
74415;SDS011;62850;42.428;25.618;2023-07-08T09:44:20;6.40;;;4.80;;
74415;SDS011;62850;42.428;25.618;2023-07-08T09:46:54;6.20;;;4.22;;
74415;SDS011;62850;42.428;25.618;2023-07-08T09:49:29;5.80;;;4.10;;
74415;SDS011;62850;42.428;25.618;2023-07-08T09:51:58;4.90;;;3.35;;
74415;SDS011;62850;42.428;25.618;2023-07-08T09:54:24;6.90;;;3.95;;
74415;SDS011;62850;42.428;25.618;2023-07-08T09:56:55;6.30;;;4.30;;
74415;SDS011;62850;42.428;25.618;2023-07-08T09:59:30;6.30;;;4.50;;
74415;SDS011;62850;42.428;25.618;2023-07-08T10:02:02;6.15;;;4.60;;
74415;SDS011;62850;42.428;25.618;2023-07-08T10:04:42;7.60;;;4.00;;
74415;SDS011;62850;42.428;25.618;2023-07-08T10:07:09;6.53;;;4.03;;
74415;SDS011;62850;42.428;25.618;2023-07-08T10:09:41;5.63;;;4.30;;
74415;SDS011;62850;42.428;25.618;2023-07-08T10:12:08;7.78;;;5.00;;
74415;SDS011;62850;42.428;25.618;2023-07-08T10:14:43;9.52;;;4.85;;
74415;SDS011;62850;42.428;25.618;2023-07-08T10:17:15;7.18;;;5.45;;
74415;SDS011;62850;42.428;25.618;2023-07-08T10:19:42;6.95;;;5.13;;
74415;SDS011;62850;42.428;25.618;2023-07-08T10:25:00;8.95;;;6.80;;
74415;SDS011;62850;42.428;25.618;2023-07-08T10:35:20;8.60;;;6.93;;
74415;SDS011;62850;42.428;25.618;2023-07-08T10:40:49;7.72;;;6.28;;
74415;SDS011;62850;42.428;25.618;2023-07-08T10:55:11;9.48;;;6.57;;
74415;SDS011;62850;42.428;25.618;2023-07-08T10:57:48;8.57;;;6.32;;
74415;SDS011;62850;42.428;25.618;2023-07-08T11:00:27;9.88;;;6.97;;
74415;SDS011;62850;42.428;25.618;2023-07-08T11:06:14;11.70;;;7.43;;
74415;SDS011;62850;42.428;25.618;2023-07-08T11:08:46;8.85;;;6.70;;
74415;SDS011;62850;42.428;25.618;2023-07-08T11:11:33;9.82;;;7.45;;
74415;SDS011;62850;42.428;25.618;2023-07-08T11:16:38;8.60;;;7.10;;
74415;SDS011;62850;42.428;25.618;2023-07-08T11:19:13;9.70;;;7.05;;
74415;SDS011;62850;42.428;25.618;2023-07-08T11:21:43;8.88;;;6.78;;
74415;SDS011;62850;42.428;25.618;2023-07-08T11:24:21;7.78;;;6.20;;
74415;SDS011;62850;42.428;25.618;2023-07-08T11:27:35;7.32;;;5.57;;
74415;SDS011;62850;42.428;25.618;2023-07-08T11:30:05;8.07;;;6.65;;
74415;SDS011;62850;42.428;25.618;2023-07-08T11:32:38;8.32;;;6.28;;
74415;SDS011;62850;42.428;25.618;2023-07-08T11:35:05;8.75;;;6.93;;
74415;SDS011;62850;42.428;25.618;2023-07-08T11:37:37;8.98;;;6.95;;
74415;SDS011;62850;42.428;25.618;2023-07-08T11:40:36;17.83;;;10.82;;
74415;SDS011;62850;42.428;25.618;2023-07-08T11:43:02;11.15;;;7.75;;
74415;SDS011;62850;42.428;25.618;2023-07-08T11:45:35;11.38;;;8.88;;
74415;SDS011;62850;42.428;25.618;2023-07-08T11:48:11;8.25;;;6.18;;
74415;SDS011;62850;42.428;25.618;2023-07-08T11:50:42;9.10;;;5.38;;
74415;SDS011;62850;42.428;25.618;2023-07-08T11:53:10;8.75;;;5.95;;
74415;SDS011;62850;42.428;25.618;2023-07-08T11:55:56;9.35;;;6.10;;
74415;SDS011;62850;42.428;25.618;2023-07-08T11:58:27;8.75;;;5.30;;
74415;SDS011;62850;42.428;25.618;2023-07-08T12:03:37;6.72;;;4.95;;
74415;SDS011;62850;42.428;25.618;2023-07-08T12:08:52;8.77;;;5.00;;
74415;SDS011;62850;42.428;25.618;2023-07-08T12:11:28;7.82;;;5.03;;
74415;SDS011;62850;42.428;25.618;2023-07-08T12:13:58;12.70;;;5.63;;
74415;SDS011;62850;42.428;25.618;2023-07-08T12:16:26;9.80;;;5.70;;
74415;SDS011;62850;42.428;25.618;2023-07-08T12:18:53;9.98;;;5.75;;
74415;SDS011;62850;42.428;25.618;2023-07-08T12:21:22;9.23;;;5.45;;
74415;SDS011;62850;42.428;25.618;2023-07-08T12:23:48;10.07;;;5.95;;
74415;SDS011;62850;42.428;25.618;2023-07-08T12:26:14;7.28;;;4.18;;
74415;SDS011;62850;42.428;25.618;2023-07-08T12:28:41;7.10;;;4.60;;
74415;SDS011;62850;42.428;25.618;2023-07-08T12:31:17;6.60;;;4.43;;
74415;SDS011;62850;42.428;25.618;2023-07-08T12:33:44;7.55;;;4.45;;
74415;SDS011;62850;42.428;25.618;2023-07-08T12:36:18;7.25;;;4.60;;
74415;SDS011;62850;42.428;25.618;2023-07-08T12:38:50;5.53;;;3.95;;
74415;SDS011;62850;42.428;25.618;2023-07-08T12:41:18;5.82;;;4.30;;
74415;SDS011;62850;42.428;25.618;2023-07-08T12:43:51;7.30;;;4.63;;
74415;SDS011;62850;42.428;25.618;2023-07-08T12:46:18;5.93;;;3.92;;
74415;SDS011;62850;42.428;25.618;2023-07-08T12:48:45;6.05;;;4.57;;
74415;SDS011;62850;42.428;25.618;2023-07-08T12:51:14;6.47;;;3.80;;
74415;SDS011;62850;42.428;25.618;2023-07-08T12:53:42;6.15;;;4.60;;
74415;SDS011;62850;42.428;25.618;2023-07-08T12:56:08;6.45;;;3.70;;
74415;SDS011;62850;42.428;25.618;2023-07-08T12:58:37;6.75;;;3.92;;
74415;SDS011;62850;42.428;25.618;2023-07-08T13:01:06;5.40;;;3.70;;
74415;SDS011;62850;42.428;25.618;2023-07-08T13:03:40;5.00;;;3.50;;
74415;SDS011;62850;42.428;25.618;2023-07-08T13:06:09;6.13;;;3.97;;
74415;SDS011;62850;42.428;25.618;2023-07-08T13:08:37;5.65;;;3.60;;
74415;SDS011;62850;42.428;25.618;2023-07-08T13:11:04;6.28;;;3.83;;
74415;SDS011;62850;42.428;25.618;2023-07-08T13:13:33;5.20;;;3.55;;
74415;SDS011;62850;42.428;25.618;2023-07-08T13:18:33;5.70;;;3.83;;
74415;SDS011;62850;42.428;25.618;2023-07-08T13:20:59;6.07;;;3.63;;
74415;SDS011;62850;42.428;25.618;2023-07-08T13:23:26;5.60;;;3.60;;
74415;SDS011;62850;42.428;25.618;2023-07-08T13:25:53;7.28;;;3.60;;
74415;SDS011;62850;42.428;25.618;2023-07-08T13:33:19;6.05;;;3.80;;
74415;SDS011;62850;42.428;25.618;2023-07-08T13:35:45;7.03;;;3.80;;
74415;SDS011;62850;42.428;25.618;2023-07-08T13:38:15;6.25;;;4.00;;
74415;SDS011;62850;42.428;25.618;2023-07-08T13:40:44;5.40;;;3.40;;
74415;SDS011;62850;42.428;25.618;2023-07-08T13:43:15;5.18;;;3.40;;
74415;SDS011;62850;42.428;25.618;2023-07-08T13:45:44;5.90;;;3.15;;
74415;SDS011;62850;42.428;25.618;2023-07-08T13:48:29;5.35;;;3.53;;
74415;SDS011;62850;42.428;25.618;2023-07-08T13:51:09;5.68;;;3.40;;
74415;SDS011;62850;42.428;25.618;2023-07-08T13:53:50;6.70;;;3.40;;
74415;SDS011;62850;42.428;25.618;2023-07-08T13:59:04;4.50;;;2.88;;
74415;SDS011;62850;42.428;25.618;2023-07-08T14:01:32;4.47;;;2.80;;
74415;SDS011;62850;42.428;25.618;2023-07-08T14:03:59;6.00;;;2.80;;
74415;SDS011;62850;42.428;25.618;2023-07-08T14:06:29;4.63;;;3.10;;
74415;SDS011;62850;42.428;25.618;2023-07-08T14:08:58;4.78;;;2.97;;
74415;SDS011;62850;42.428;25.618;2023-07-08T14:11:44;5.13;;;3.15;;
74415;SDS011;62850;42.428;25.618;2023-07-08T14:14:11;5.13;;;2.90;;
74415;SDS011;62850;42.428;25.618;2023-07-08T14:16:41;5.00;;;3.10;;
74415;SDS011;62850;42.428;25.618;2023-07-08T14:19:20;4.97;;;2.92;;
74415;SDS011;62850;42.428;25.618;2023-07-08T14:21:50;5.88;;;3.20;;
74415;SDS011;62850;42.428;25.618;2023-07-08T14:24:19;5.43;;;3.00;;
74415;SDS011;62850;42.428;25.618;2023-07-08T14:26:44;5.43;;;3.20;;
74415;SDS011;62850;42.428;25.618;2023-07-08T14:29:11;4.85;;;3.00;;
74415;SDS011;62850;42.428;25.618;2023-07-08T14:31:37;5.82;;;3.13;;
74415;SDS011;62850;42.428;25.618;2023-07-08T14:34:08;6.13;;;3.17;;
74415;SDS011;62850;42.428;25.618;2023-07-08T14:36:42;5.72;;;3.70;;
74415;SDS011;62850;42.428;25.618;2023-07-08T14:39:11;6.15;;;3.70;;
74415;SDS011;62850;42.428;25.618;2023-07-08T14:41:38;5.10;;;3.40;;
74415;SDS011;62850;42.428;25.618;2023-07-08T14:46:48;5.50;;;3.38;;
74415;SDS011;62850;42.428;25.618;2023-07-08T14:49:16;6.20;;;2.90;;
74415;SDS011;62850;42.428;25.618;2023-07-08T14:51:46;4.70;;;2.95;;
74415;SDS011;62850;42.428;25.618;2023-07-08T14:54:11;5.28;;;3.00;;
74415;SDS011;62850;42.428;25.618;2023-07-08T14:56:37;5.03;;;3.25;;
74415;SDS011;62850;42.428;25.618;2023-07-08T14:59:04;5.55;;;3.30;;
74415;SDS011;62850;42.428;25.618;2023-07-08T15:01:30;4.70;;;2.72;;
74415;SDS011;62850;42.428;25.618;2023-07-08T15:03:56;6.28;;;2.95;;
74415;SDS011;62850;42.428;25.618;2023-07-08T15:06:23;4.95;;;2.97;;
74415;SDS011;62850;42.428;25.618;2023-07-08T15:08:49;4.60;;;2.83;;
74415;SDS011;62850;42.428;25.618;2023-07-08T15:11:15;4.40;;;3.00;;
74415;SDS011;62850;42.428;25.618;2023-07-08T15:13:41;5.50;;;2.63;;
74415;SDS011;62850;42.428;25.618;2023-07-08T15:16:13;4.72;;;2.92;;
74415;SDS011;62850;42.428;25.618;2023-07-08T15:18:41;5.80;;;3.08;;
74415;SDS011;62850;42.428;25.618;2023-07-08T15:21:14;5.30;;;2.95;;
74415;SDS011;62850;42.428;25.618;2023-07-08T15:23:40;4.57;;;2.80;;
74415;SDS011;62850;42.428;25.618;2023-07-08T15:26:09;4.88;;;2.85;;
74415;SDS011;62850;42.428;25.618;2023-07-08T15:28:40;4.85;;;2.70;;
74415;SDS011;62850;42.428;25.618;2023-07-08T15:31:13;5.13;;;2.75;;
74415;SDS011;62850;42.428;25.618;2023-07-08T15:33:40;4.50;;;2.83;;
74415;SDS011;62850;42.428;25.618;2023-07-08T15:36:07;4.45;;;2.53;;
74415;SDS011;62850;42.428;25.618;2023-07-08T15:38:35;4.95;;;2.88;;
74415;SDS011;62850;42.428;25.618;2023-07-08T15:41:00;4.40;;;2.60;;
74415;SDS011;62850;42.428;25.618;2023-07-08T15:43:28;7.30;;;3.05;;
74415;SDS011;62850;42.428;25.618;2023-07-08T15:45:54;7.22;;;3.40;;